createdAt,value
2017-08-02T00:00:08.853Z,1030.04
2017-08-02T00:01:08.850Z,1029.94
2017-08-02T00:02:08.848Z,1029.86
2017-08-02T00:03:08.852Z,1029.88
2017-08-02T00:04:08.846Z,1029.8
2017-08-02T00:05:08.850Z,1029.76
2017-08-02T00:06:08.844Z,1029.74
2017-08-02T00:07:08.843Z,1029.7
2017-08-02T00:08:08.847Z,1029.68
2017-08-02T00:09:08.848Z,1029.7
2017-08-02T00:10:08.846Z,1029.68
2017-08-02T00:11:08.837Z,1029.68
2017-08-02T00:12:08.843Z,1029.72
2017-08-02T00:13:08.841Z,1029.73
2017-08-02T00:14:08.837Z,1029.81
2017-08-02T00:15:08.841Z,1029.8
2017-08-02T00:16:08.836Z,1029.86
2017-08-02T00:17:08.840Z,1029.88
2017-08-02T00:18:08.838Z,1029.93
2017-08-02T00:19:08.837Z,1029.96
2017-08-02T00:20:08.835Z,1029.95
2017-08-02T00:21:08.836Z,1029.93
2017-08-02T00:22:08.831Z,1029.95
2017-08-02T00:23:08.832Z,1029.97
2017-08-02T00:24:08.835Z,1029.98
2017-08-02T00:25:08.834Z,1029.97
2017-08-02T00:26:08.830Z,1029.98
2017-08-02T00:27:08.832Z,1029.99
2017-08-02T00:28:08.826Z,1029.94
2017-08-02T00:29:08.831Z,1029.93
2017-08-02T00:30:08.828Z,1029.96
2017-08-02T00:31:08.824Z,1029.95
2017-08-02T00:32:08.824Z,1029.97
2017-08-02T00:33:08.824Z,1029.98
2017-08-02T00:34:08.824Z,1029.99
2017-08-02T00:35:08.822Z,1030.02
2017-08-02T00:36:08.821Z,1030.05
2017-08-02T00:37:08.822Z,1030.1
2017-08-02T00:38:08.817Z,1030.11
2017-08-02T00:39:08.819Z,1030.14
2017-08-02T00:40:08.816Z,1030.2
2017-08-02T00:41:08.813Z,1030.23
2017-08-02T00:42:08.831Z,1030.22
2017-08-02T00:43:09.064Z,1030.23
2017-08-02T00:44:08.809Z,1030.23
2017-08-02T00:45:08.818Z,1030.22
2017-08-02T00:46:08.815Z,1030.22
2017-08-02T00:47:08.808Z,1030.19
2017-08-02T00:48:08.805Z,1030.19
2017-08-02T00:49:08.805Z,1030.21
2017-08-02T00:50:08.806Z,1030.22
2017-08-02T00:51:08.807Z,1030.22
2017-08-02T00:52:08.803Z,1030.22
2017-08-02T00:53:08.800Z,1030.23
2017-08-02T00:54:08.798Z,1030.25
2017-08-02T00:55:08.800Z,1030.21
2017-08-02T00:56:08.798Z,1030.16
2017-08-02T00:57:08.802Z,1030.18
2017-08-02T00:58:08.797Z,1030.12
2017-08-02T00:59:08.795Z,1030.09
2017-08-02T01:00:08.791Z,1030.13
2017-08-02T01:01:08.788Z,1030.15
2017-08-02T01:02:08.792Z,1030.19
2017-08-02T01:03:08.787Z,1030.18
2017-08-02T01:04:08.790Z,1030.11
2017-08-02T01:05:08.787Z,1030.09
2017-08-02T01:06:08.787Z,1030.04
2017-08-02T01:07:08.783Z,1030.07
2017-08-02T01:08:08.784Z,1030.01
2017-08-02T01:09:09.030Z,1029.97
2017-08-02T01:10:08.779Z,1030
2017-08-02T01:11:08.780Z,1029.99
2017-08-02T01:12:08.777Z,1030.02
2017-08-02T01:13:08.778Z,1030
2017-08-02T01:14:08.775Z,1029.97
2017-08-02T01:15:08.769Z,1029.93
2017-08-02T01:16:08.770Z,1029.92
2017-08-02T01:17:08.771Z,1029.84
2017-08-02T01:18:08.769Z,1029.87
2017-08-02T01:19:08.765Z,1029.82
2017-08-02T01:20:08.767Z,1029.82
2017-08-02T01:21:08.767Z,1029.8
2017-08-02T01:22:08.762Z,1029.83
2017-08-02T01:23:08.762Z,1029.81
2017-08-02T01:24:08.759Z,1029.82
2017-08-02T01:25:08.757Z,1029.81
2017-08-02T01:26:08.759Z,1029.83
2017-08-02T01:27:08.757Z,1029.8
2017-08-02T01:28:08.750Z,1029.81
2017-08-02T01:29:08.750Z,1029.76
2017-08-02T01:30:08.750Z,1029.74
2017-08-02T01:31:08.747Z,1029.8
2017-08-02T01:32:08.751Z,1029.83
2017-08-02T01:33:08.749Z,1029.79
2017-08-02T01:34:08.747Z,1029.79
2017-08-02T01:35:08.745Z,1029.81
2017-08-02T01:36:08.745Z,1029.88
2017-08-02T01:37:08.742Z,1029.89
2017-08-02T01:38:08.738Z,1029.88
2017-08-02T01:39:08.740Z,1029.89
2017-08-02T01:40:08.735Z,1029.91
2017-08-02T01:41:08.734Z,1029.86
2017-08-02T01:42:08.736Z,1029.84
2017-08-02T01:43:08.735Z,1029.83
2017-08-02T01:44:08.729Z,1029.83
2017-08-02T01:45:08.735Z,1029.88
2017-08-02T01:46:08.730Z,1029.86
2017-08-02T01:47:08.726Z,1029.87
2017-08-02T01:48:08.727Z,1029.91
2017-08-02T01:49:08.723Z,1029.91
2017-08-02T01:50:08.724Z,1029.92
2017-08-02T01:51:08.722Z,1029.98
2017-08-02T01:52:08.719Z,1030.02
2017-08-02T01:53:08.723Z,1030.02
2017-08-02T01:54:08.716Z,1029.99
2017-08-02T01:55:08.715Z,1029.99
2017-08-02T01:56:08.714Z,1030
2017-08-02T01:57:08.712Z,1030.02
2017-08-02T01:58:08.712Z,1030.05
2017-08-02T01:59:08.714Z,1030.03
2017-08-02T02:00:08.707Z,1029.99
2017-08-02T02:01:08.708Z,1030.05
2017-08-02T02:02:08.703Z,1030.06
2017-08-02T02:03:08.705Z,1030.09
2017-08-02T02:04:08.703Z,1030.08
2017-08-02T02:05:08.699Z,1030.12
2017-08-02T02:06:08.696Z,1030.13
2017-08-02T02:07:08.702Z,1030.16
2017-08-02T02:08:08.695Z,1030.22
2017-08-02T02:09:08.692Z,1030.24
2017-08-02T02:10:08.696Z,1030.27
2017-08-02T02:11:08.699Z,1030.27
2017-08-02T02:12:08.692Z,1030.32
2017-08-02T02:13:08.689Z,1030.31
2017-08-02T02:14:08.689Z,1030.36
2017-08-02T02:15:08.684Z,1030.38
2017-08-02T02:16:08.681Z,1030.41
2017-08-02T02:17:08.679Z,1030.42
2017-08-02T02:18:08.681Z,1030.45
2017-08-02T02:19:08.683Z,1030.48
2017-08-02T02:20:08.676Z,1030.46
2017-08-02T02:21:08.677Z,1030.46
2017-08-02T02:22:08.676Z,1030.46
2017-08-02T02:23:08.669Z,1030.47
2017-08-02T02:24:08.671Z,1030.44
2017-08-02T02:25:08.669Z,1030.45
2017-08-02T02:26:08.668Z,1030.44
2017-08-02T02:27:08.667Z,1030.43
2017-08-02T02:28:08.665Z,1030.42
2017-08-02T02:29:08.661Z,1030.43
2017-08-02T02:30:08.663Z,1030.41
2017-08-02T02:31:08.659Z,1030.4
2017-08-02T02:32:08.658Z,1030.39
2017-08-02T02:33:08.652Z,1030.39
2017-08-02T02:34:08.650Z,1030.41
2017-08-02T02:35:08.650Z,1030.37
2017-08-02T02:36:08.649Z,1030.38
2017-08-02T02:37:08.649Z,1030.39
2017-08-02T02:38:08.647Z,1030.36
2017-08-02T02:39:08.646Z,1030.39
2017-08-02T02:40:08.641Z,1030.35
2017-08-02T02:41:08.644Z,1030.34
2017-08-02T02:42:08.638Z,1030.31
2017-08-02T02:43:08.641Z,1030.32
2017-08-02T02:44:08.634Z,1030.35
2017-08-02T02:45:08.634Z,1030.35
2017-08-02T02:46:08.633Z,1030.33
2017-08-02T02:47:08.634Z,1030.34
2017-08-02T02:48:08.627Z,1030.3
2017-08-02T02:49:08.625Z,1030.3
2017-08-02T02:50:08.623Z,1030.27
2017-08-02T02:51:08.625Z,1030.28
2017-08-02T02:52:08.624Z,1030.29
2017-08-02T02:53:08.620Z,1030.31
2017-08-02T02:54:08.619Z,1030.35
2017-08-02T02:55:08.618Z,1030.37
2017-08-02T02:56:08.613Z,1030.33
2017-08-02T02:57:08.614Z,1030.34
2017-08-02T02:58:08.608Z,1030.36
2017-08-02T02:59:08.608Z,1030.36
2017-08-02T03:00:08.607Z,1030.38
2017-08-02T03:01:08.607Z,1030.36
2017-08-02T03:02:08.602Z,1030.37
2017-08-02T03:03:08.603Z,1030.36
2017-08-02T03:04:08.601Z,1030.4
2017-08-02T03:05:08.597Z,1030.43
2017-08-02T03:06:08.598Z,1030.49
2017-08-02T03:07:08.596Z,1030.53
2017-08-02T03:08:08.594Z,1030.55
2017-08-02T03:09:08.592Z,1030.55
2017-08-02T03:10:08.592Z,1030.58
2017-08-02T03:11:08.587Z,1030.57
2017-08-02T03:12:08.588Z,1030.62
2017-08-02T03:13:08.583Z,1030.62
2017-08-02T03:14:08.582Z,1030.59
2017-08-02T03:15:08.583Z,1030.63
2017-08-02T03:16:08.580Z,1030.66
2017-08-02T03:17:08.576Z,1030.7
2017-08-02T03:18:08.575Z,1030.73
2017-08-02T03:19:08.819Z,1030.77
2017-08-02T03:20:08.569Z,1030.82
2017-08-02T03:21:08.570Z,1030.81
2017-08-02T03:22:08.565Z,1030.83
2017-08-02T03:23:08.562Z,1030.84
2017-08-02T03:24:08.564Z,1030.88
2017-08-02T03:25:08.557Z,1030.9
2017-08-02T03:26:08.557Z,1030.91
2017-08-02T03:27:08.558Z,1030.94
2017-08-02T03:28:08.557Z,1030.96
2017-08-02T03:29:08.556Z,1031.01
2017-08-02T03:30:08.553Z,1031.02
2017-08-02T03:31:08.545Z,1030.99
2017-08-02T03:32:08.546Z,1030.96
2017-08-02T03:33:08.544Z,1031
2017-08-02T03:34:08.545Z,1031.01
2017-08-02T03:35:08.541Z,1030.99
2017-08-02T03:36:08.536Z,1031.02
2017-08-02T03:37:08.538Z,1031.06
2017-08-02T03:38:08.534Z,1031.06
2017-08-02T03:39:08.528Z,1031.05
2017-08-02T03:40:08.532Z,1031.07
2017-08-02T03:41:08.525Z,1031.09
2017-08-02T03:42:08.525Z,1031.05
2017-08-02T03:43:08.524Z,1031.08
2017-08-02T03:44:08.525Z,1031.11
2017-08-02T03:45:08.516Z,1031.06
2017-08-02T03:46:08.517Z,1031.08
2017-08-02T03:47:08.511Z,1031.09
2017-08-02T03:48:08.511Z,1031.1
2017-08-02T03:49:08.510Z,1031.14
2017-08-02T03:50:08.506Z,1031.13
2017-08-02T03:51:08.503Z,1031.13
2017-08-02T03:52:08.509Z,1031.15
2017-08-02T03:53:08.502Z,1031.15
2017-08-02T03:54:08.500Z,1031.14
2017-08-02T03:55:08.498Z,1031.12
2017-08-02T03:56:08.496Z,1031.12
2017-08-02T03:57:08.493Z,1031.07
2017-08-02T03:58:08.493Z,1031.07
2017-08-02T03:59:08.484Z,1031.09
2017-08-02T04:00:08.487Z,1031.06
2017-08-02T04:01:08.483Z,1031.07
2017-08-02T04:02:08.481Z,1031.05
2017-08-02T04:03:08.481Z,1031
2017-08-02T04:04:08.482Z,1030.95
2017-08-02T04:05:08.475Z,1030.84
2017-08-02T04:06:08.474Z,1030.76
2017-08-02T04:07:08.471Z,1030.77
2017-08-02T04:08:08.470Z,1030.71
2017-08-02T04:09:08.464Z,1030.59
2017-08-02T04:10:08.464Z,1030.53
2017-08-02T04:11:08.459Z,1030.47
2017-08-02T04:12:08.462Z,1030.43
2017-08-02T04:13:08.456Z,1030.33
2017-08-02T04:14:08.458Z,1030.29
2017-08-02T04:15:08.451Z,1030.21
2017-08-02T04:16:08.452Z,1030.16
2017-08-02T04:17:08.450Z,1030.13
2017-08-02T04:18:08.453Z,1029.97
2017-08-02T04:19:08.448Z,1029.87
2017-08-02T04:20:08.447Z,1029.8
2017-08-02T04:21:08.443Z,1029.74
2017-08-02T04:22:08.446Z,1029.68
2017-08-02T04:23:08.445Z,1029.6
2017-08-02T04:24:08.444Z,1029.49
2017-08-02T04:25:08.442Z,1029.41
2017-08-02T04:26:08.439Z,1029.27
2017-08-02T04:27:08.439Z,1029.12
2017-08-02T04:28:08.440Z,1029.04
2017-08-02T04:29:08.440Z,1028.95
2017-08-02T04:30:08.438Z,1028.92
2017-08-02T04:31:08.442Z,1028.93
2017-08-02T04:32:08.444Z,1028.98
2017-08-02T04:33:08.439Z,1029
2017-08-02T04:34:08.444Z,1028.99
2017-08-02T04:35:08.441Z,1029.02
2017-08-02T04:36:08.445Z,1028.96
2017-08-02T04:37:08.443Z,1028.96
2017-08-02T04:38:08.445Z,1028.82
2017-08-02T04:39:08.451Z,1028.72
2017-08-02T04:40:08.447Z,1028.66
2017-08-02T04:41:08.447Z,1028.52
2017-08-02T04:42:08.445Z,1028.42
2017-08-02T04:43:08.450Z,1028.44
2017-08-02T04:44:08.452Z,1028.46
2017-08-02T04:45:08.455Z,1028.46
2017-08-02T04:46:08.458Z,1028.51
2017-08-02T04:47:08.457Z,1028.57
2017-08-02T04:48:08.453Z,1028.61
2017-08-02T04:49:08.461Z,1028.62
2017-08-02T04:50:08.458Z,1028.61
2017-08-02T04:51:08.465Z,1028.7
2017-08-02T04:52:08.468Z,1028.66
2017-08-02T04:53:08.468Z,1028.64
2017-08-02T04:54:08.470Z,1028.7
2017-08-02T04:55:08.473Z,1028.75
2017-08-02T04:56:08.474Z,1028.82
2017-08-02T04:57:08.475Z,1028.92
2017-08-02T04:58:08.473Z,1028.89
2017-08-02T04:59:08.479Z,1029.04
2017-08-02T05:00:08.486Z,1029.02
2017-08-02T05:01:08.485Z,1029.01
2017-08-02T05:02:08.483Z,1029.03
2017-08-02T05:03:08.489Z,1029.02
2017-08-02T05:04:08.490Z,1029.06
2017-08-02T05:05:08.493Z,1029.05
2017-08-02T05:06:08.490Z,1028.98
2017-08-02T05:07:08.498Z,1028.94
2017-08-02T05:08:08.498Z,1028.85
2017-08-02T05:09:08.503Z,1028.83
2017-08-02T05:10:08.499Z,1028.81
2017-08-02T05:11:08.502Z,1028.87
2017-08-02T05:12:08.506Z,1028.92
2017-08-02T05:13:08.509Z,1028.93
2017-08-02T05:14:08.511Z,1028.94
2017-08-02T05:15:08.513Z,1029.03
2017-08-02T05:16:08.514Z,1029.05
2017-08-02T05:17:08.515Z,1029.08
2017-08-02T05:18:08.517Z,1028.95
2017-08-02T05:19:08.519Z,1028.74
2017-08-02T05:20:08.524Z,1028.61
2017-08-02T05:21:08.526Z,1028.38
2017-08-02T05:22:08.524Z,1028.14
2017-08-02T05:23:08.526Z,1028.09
2017-08-02T05:24:08.530Z,1028.01
2017-08-02T05:25:08.530Z,1027.86
2017-08-02T05:26:08.529Z,1027.7
2017-08-02T05:27:08.537Z,1027.56
2017-08-02T05:28:08.537Z,1027.46
2017-08-02T05:29:08.543Z,1027.17
2017-08-02T05:30:08.545Z,1026.84
2017-08-02T05:31:08.544Z,1026.63
2017-08-02T05:32:08.552Z,1026.55
2017-08-02T05:33:08.551Z,1026.56
2017-08-02T05:34:08.556Z,1026.5
2017-08-02T05:35:08.559Z,1026.36
2017-08-02T05:36:08.567Z,1026.45
2017-08-02T05:37:08.568Z,1026.32
2017-08-02T05:38:08.579Z,1025.92
2017-08-02T05:39:08.575Z,1025.68
2017-08-02T05:40:08.583Z,1025.67
2017-08-02T05:41:08.587Z,1025.68
2017-08-02T05:42:08.596Z,1025.82
2017-08-02T05:43:08.604Z,1025.78
2017-08-02T05:44:08.604Z,1025.68
2017-08-02T05:45:08.615Z,1025.49
2017-08-02T05:46:08.621Z,1025.4
2017-08-02T05:47:08.624Z,1025.51
2017-08-02T05:48:08.636Z,1025.33
2017-08-02T05:49:08.642Z,1025.25
2017-08-02T05:50:08.651Z,1025.21
2017-08-02T05:51:08.654Z,1025.04
2017-08-02T05:52:08.668Z,1024.93
2017-08-02T05:53:08.671Z,1024.91
2017-08-02T05:54:08.683Z,1024.74
2017-08-02T05:55:08.688Z,1024.64
2017-08-02T05:56:08.698Z,1024.56
2017-08-02T05:57:08.704Z,1024.39
2017-08-02T05:58:08.715Z,1024.37
2017-08-02T05:59:08.726Z,1024.41
2017-08-02T06:00:08.733Z,1024.32
2017-08-02T06:01:08.742Z,1024.26
2017-08-02T06:02:08.752Z,1024.25
2017-08-02T06:03:08.769Z,1024.26
2017-08-02T06:04:08.777Z,1024.25
2017-08-02T06:05:08.786Z,1024.24
2017-08-02T06:06:08.797Z,1024.15
2017-08-02T06:07:08.811Z,1024.12
2017-08-02T06:08:08.814Z,1024.1
2017-08-02T06:09:08.832Z,1024.15
2017-08-02T06:10:08.837Z,1024.19
2017-08-02T06:11:08.856Z,1024.15
2017-08-02T06:12:08.862Z,1024.1
2017-08-02T06:13:08.874Z,1024.06
2017-08-02T06:14:08.892Z,1023.94
2017-08-02T06:15:08.899Z,1023.81
2017-08-02T06:16:08.909Z,1023.72
2017-08-02T06:17:08.923Z,1023.64
2017-08-02T06:18:08.934Z,1023.65
2017-08-02T06:19:08.953Z,1023.53
2017-08-02T06:20:08.965Z,1023.39
2017-08-02T06:21:08.979Z,1023.32
2017-08-02T06:22:08.991Z,1023.27
2017-08-02T06:23:09.005Z,1023.35
2017-08-02T06:24:09.018Z,1023.35
2017-08-02T06:25:09.030Z,1023.24
2017-08-02T06:26:09.047Z,1023.44
2017-08-02T06:27:09.059Z,1023.53
2017-08-02T06:28:09.075Z,1023.53
2017-08-02T06:29:09.090Z,1023.51
2017-08-02T06:30:09.103Z,1023.39
2017-08-02T06:31:09.119Z,1023.01
2017-08-02T06:32:09.137Z,1023.43
2017-08-02T06:33:09.151Z,1023.55
2017-08-02T06:34:09.168Z,1023.54
2017-08-02T06:35:09.181Z,1022.93
2017-08-02T06:36:09.198Z,1023.49
2017-08-02T06:37:09.214Z,1023.5
2017-08-02T06:38:09.226Z,1023.33
2017-08-02T06:39:09.246Z,1023.15
2017-08-02T06:40:09.260Z,1023.24
2017-08-02T06:41:09.278Z,1023.5
2017-08-02T06:42:09.295Z,1023.52
2017-08-02T06:43:09.309Z,1023.64
2017-08-02T06:44:09.328Z,1024
2017-08-02T06:45:09.344Z,1024.32
2017-08-02T06:46:09.357Z,1024.04
2017-08-02T06:47:09.375Z,1024.51
2017-08-02T06:48:09.390Z,1024.83
2017-08-02T06:49:09.406Z,1025.17
2017-08-02T06:50:09.420Z,1025.32
2017-08-02T06:51:09.437Z,1025.07
2017-08-02T06:52:09.453Z,1024.96
2017-08-02T06:53:09.464Z,1025.18
2017-08-02T06:54:09.480Z,1025.27
2017-08-02T06:55:09.496Z,1025.41
2017-08-02T06:56:09.507Z,1025.68
2017-08-02T06:57:09.521Z,1025.68
2017-08-02T06:58:09.539Z,1025.83
2017-08-02T06:59:09.552Z,1025.95
2017-08-02T07:00:09.564Z,1025.97
2017-08-02T07:01:09.577Z,1025.69
2017-08-02T07:02:09.595Z,1025.72
2017-08-02T07:03:09.603Z,1025.9
2017-08-02T07:04:09.619Z,1026.1
2017-08-02T07:05:09.633Z,1026.22
2017-08-02T07:06:09.647Z,1026.41
2017-08-02T07:07:09.660Z,1026.52
2017-08-02T07:08:09.673Z,1026.64
2017-08-02T07:09:09.683Z,1026.76
2017-08-02T07:10:09.697Z,1026.89
2017-08-02T07:11:09.704Z,1027.02
2017-08-02T07:12:09.722Z,1027.19
2017-08-02T07:13:09.729Z,1027.26
2017-08-02T07:14:09.745Z,1027.4
2017-08-02T07:15:09.753Z,1027.53
2017-08-02T07:16:09.769Z,1027.64
2017-08-02T07:17:09.776Z,1027.78
2017-08-02T07:18:09.790Z,1027.86
2017-08-02T07:19:09.801Z,1027.92
2017-08-02T07:20:09.809Z,1027.9
2017-08-02T07:21:09.816Z,1027.91
2017-08-02T07:22:09.833Z,1027.87
2017-08-02T07:23:09.837Z,1027.88
2017-08-02T07:24:09.852Z,1027.86
2017-08-02T07:25:09.862Z,1027.89
2017-08-02T07:26:09.872Z,1027.91
2017-08-02T07:27:09.880Z,1027.75
2017-08-02T07:28:09.894Z,1027.73
2017-08-02T07:29:09.899Z,1027.5
2017-08-02T07:30:09.906Z,1027.48
2017-08-02T07:31:09.921Z,1027.33
2017-08-02T07:32:09.928Z,1027.29
2017-08-02T07:33:09.935Z,1027.25
2017-08-02T07:34:09.948Z,1027.32
2017-08-02T07:35:09.955Z,1027.27
2017-08-02T07:36:09.966Z,1027.36
2017-08-02T07:37:09.977Z,1027.29
2017-08-02T07:38:09.988Z,1027.31
2017-08-02T07:39:09.994Z,1027.38
2017-08-02T07:40:10.008Z,1027.43
2017-08-02T07:41:10.012Z,1027.45
2017-08-02T07:42:10.022Z,1027.51
2017-08-02T07:43:10.032Z,1027.36
2017-08-02T07:44:10.046Z,1027.31
2017-08-02T07:45:10.055Z,1026.59
2017-08-02T07:46:10.058Z,1026.53
2017-08-02T07:47:10.071Z,1026.18
2017-08-02T07:48:10.081Z,1026.16
2017-08-02T07:49:10.094Z,1026.19
2017-08-02T07:50:10.100Z,1026.2
2017-08-02T07:51:10.109Z,1026.12
2017-08-02T07:52:10.124Z,1026.22
2017-08-02T07:53:10.137Z,1026.36
2017-08-02T07:54:10.142Z,1026.6
2017-08-02T07:55:10.151Z,1026.5
2017-08-02T07:56:10.162Z,1026.53
2017-08-02T07:57:10.174Z,1026.5
2017-08-02T07:58:10.181Z,1026.61
2017-08-02T07:59:10.191Z,1026.69
2017-08-02T08:00:10.206Z,1026.79
2017-08-02T08:01:10.216Z,1026.71
2017-08-02T08:02:10.224Z,1026.5
2017-08-02T08:03:10.236Z,1026.45
2017-08-02T08:04:10.245Z,1026.59
2017-08-02T08:05:10.256Z,1026.76
2017-08-02T08:06:10.266Z,1026.89
2017-08-02T08:07:10.277Z,1026.95
2017-08-02T08:08:10.288Z,1027.01
2017-08-02T08:09:10.297Z,1026.99
2017-08-02T08:10:10.309Z,1027.01
2017-08-02T08:11:10.323Z,1027.06
2017-08-02T08:12:10.329Z,1027.15
2017-08-02T08:13:10.341Z,1027.25
2017-08-02T08:14:10.365Z,1027.27
2017-08-02T08:15:10.362Z,1027.36
2017-08-02T08:16:10.372Z,1027.47
2017-08-02T08:17:10.380Z,1027.5
2017-08-02T08:18:10.393Z,1027.59
2017-08-02T08:19:10.403Z,1027.74
2017-08-02T08:20:10.410Z,1027.96
2017-08-02T08:21:10.422Z,1028.06
2017-08-02T08:22:10.431Z,1028.15
2017-08-02T08:23:10.442Z,1028.22
2017-08-02T08:24:10.450Z,1028.27
2017-08-02T08:25:10.464Z,1028.36
2017-08-02T08:26:10.469Z,1028.51
2017-08-02T08:27:10.481Z,1028.59
2017-08-02T08:28:10.491Z,1028.62
2017-08-02T08:29:10.498Z,1028.6
2017-08-02T08:30:10.509Z,1028.54
2017-08-02T08:31:10.516Z,1028.53
2017-08-02T08:32:10.524Z,1028.59
2017-08-02T08:33:10.533Z,1028.58
2017-08-02T08:34:10.546Z,1028.54
2017-08-02T08:35:10.556Z,1028.6
2017-08-02T08:36:10.564Z,1028.5
2017-08-02T08:37:10.570Z,1028.4
2017-08-02T08:38:10.583Z,1028.54
2017-08-02T08:39:10.592Z,1028.62
2017-08-02T08:40:10.600Z,1028.7
2017-08-02T08:41:10.605Z,1028.81
2017-08-02T08:42:10.618Z,1028.87
2017-08-02T08:43:10.623Z,1028.81
2017-08-02T08:44:10.634Z,1028.54
2017-08-02T08:45:10.644Z,1028.55
2017-08-02T08:46:10.652Z,1028.3
2017-08-02T08:47:10.661Z,1027.72
2017-08-02T08:48:10.670Z,1027.7
2017-08-02T08:49:10.680Z,1027.37
2017-08-02T08:50:10.688Z,1027.2
2017-08-02T08:51:10.698Z,1027.24
2017-08-02T08:52:10.705Z,1027.27
2017-08-02T08:53:10.711Z,1027.26
2017-08-02T08:54:10.730Z,1027.28
2017-08-02T08:55:10.730Z,1027.33
2017-08-02T08:56:10.742Z,1027.4
2017-08-02T08:57:10.750Z,1027.47
2017-08-02T08:58:10.761Z,1027.49
2017-08-02T08:59:10.774Z,1027.62
2017-08-02T09:00:10.782Z,1027.77
2017-08-02T09:01:10.794Z,1027.93
2017-08-02T09:02:10.802Z,1028.03
2017-08-02T09:03:10.813Z,1028.11
2017-08-02T09:04:10.820Z,1028.26
2017-08-02T09:05:10.829Z,1028.38
2017-08-02T09:06:10.840Z,1028.43
2017-08-02T09:07:10.849Z,1028.46
2017-08-02T09:08:10.860Z,1028.53
2017-08-02T09:09:10.866Z,1028.56
2017-08-02T09:10:10.878Z,1028.59
2017-08-02T09:11:10.884Z,1028.58
2017-08-02T09:12:10.889Z,1028.5
2017-08-02T09:13:10.903Z,1028.33
2017-08-02T09:14:10.913Z,1028.2
2017-08-02T09:15:10.923Z,1028.09
2017-08-02T09:16:10.929Z,1027.98
2017-08-02T09:17:10.939Z,1027.92
2017-08-02T09:18:10.950Z,1027.88
2017-08-02T09:19:10.961Z,1027.87
2017-08-02T09:20:10.968Z,1027.79
2017-08-02T09:21:10.974Z,1027.77
2017-08-02T09:22:10.990Z,1027.94
2017-08-02T09:23:10.998Z,1027.97
2017-08-02T09:24:11.006Z,1028.01
2017-08-02T09:25:11.015Z,1028.04
2017-08-02T09:26:11.024Z,1028.06
2017-08-02T09:27:11.033Z,1028.13
2017-08-02T09:28:11.042Z,1028.03
2017-08-02T09:29:11.051Z,1028.1
2017-08-02T09:30:11.061Z,1028.12
2017-08-02T09:31:11.066Z,1028.19
2017-08-02T09:32:11.078Z,1028.23
2017-08-02T09:33:11.089Z,1028.35
2017-08-02T09:34:11.095Z,1028.33
2017-08-02T09:35:11.107Z,1028.41
2017-08-02T09:36:11.116Z,1028.44
2017-08-02T09:37:11.124Z,1028.5
2017-08-02T09:38:11.136Z,1028.65
2017-08-02T09:39:11.140Z,1028.74
2017-08-02T09:40:11.154Z,1028.87
2017-08-02T09:41:11.160Z,1028.97
2017-08-02T09:42:11.174Z,1029.05
2017-08-02T09:43:11.177Z,1029.13
2017-08-02T09:44:11.189Z,1029.17
2017-08-02T09:45:11.192Z,1029.2
2017-08-02T09:46:11.206Z,1029.18
2017-08-02T09:47:11.209Z,1029.25
2017-08-02T09:48:11.223Z,1029.27
2017-08-02T09:49:11.229Z,1029.25
2017-08-02T09:50:11.240Z,1029.2
2017-08-02T09:51:11.248Z,1029.08
2017-08-02T09:52:11.258Z,1028.94
2017-08-02T09:53:11.266Z,1028.78
2017-08-02T09:54:11.273Z,1028.67
2017-08-02T09:55:11.282Z,1028.55
2017-08-02T09:56:11.290Z,1028.53
2017-08-02T09:57:11.299Z,1028.49
2017-08-02T09:58:11.301Z,1028.48
2017-08-02T09:59:11.315Z,1028.58
2017-08-02T10:00:11.322Z,1028.68
2017-08-02T10:01:11.334Z,1028.81
2017-08-02T10:02:11.337Z,1028.88
2017-08-02T10:03:11.349Z,1029.01
2017-08-02T10:04:11.358Z,1029.1
2017-08-02T10:05:11.361Z,1029.22
2017-08-02T10:06:11.373Z,1029.35
2017-08-02T10:07:11.377Z,1029.39
2017-08-02T10:08:11.389Z,1029.51
2017-08-02T10:09:11.397Z,1029.53
2017-08-02T10:10:11.410Z,1029.49
2017-08-02T10:11:11.412Z,1029.5
2017-08-02T10:12:11.423Z,1029.51
2017-08-02T10:13:11.428Z,1029.46
2017-08-02T10:14:11.437Z,1029.4
2017-08-02T10:15:11.447Z,1029.32
2017-08-02T10:16:11.453Z,1029.31
2017-08-02T10:17:11.460Z,1029.24
2017-08-02T10:18:11.465Z,1029.13
2017-08-02T10:19:11.488Z,1029.07
2017-08-02T10:20:11.482Z,1029.04
2017-08-02T10:21:11.492Z,1028.94
2017-08-02T10:22:11.502Z,1028.95
2017-08-02T10:23:11.509Z,1028.95
2017-08-02T10:24:11.514Z,1029.12
2017-08-02T10:25:11.522Z,1029.2
2017-08-02T10:26:11.531Z,1029.24
2017-08-02T10:27:11.537Z,1029.24
2017-08-02T10:28:11.544Z,1029.24
2017-08-02T10:29:11.555Z,1029.25
2017-08-02T10:30:11.558Z,1029.25
2017-08-02T10:31:11.570Z,1029.32
2017-08-02T10:32:11.575Z,1029.33
2017-08-02T10:33:11.585Z,1029.33
2017-08-02T10:34:11.591Z,1029.31
2017-08-02T10:35:11.598Z,1029.22
2017-08-02T10:36:11.601Z,1029.15
2017-08-02T10:37:11.615Z,1029.09
2017-08-02T10:38:11.624Z,1028.91
2017-08-02T10:39:11.629Z,1028.82
2017-08-02T10:40:11.636Z,1028.76
2017-08-02T10:41:11.643Z,1028.68
2017-08-02T10:42:11.648Z,1028.67
2017-08-02T10:43:11.655Z,1028.6
2017-08-02T10:44:11.663Z,1028.53
2017-08-02T10:45:11.675Z,1028.41
2017-08-02T10:46:11.681Z,1028.35
2017-08-02T10:47:11.689Z,1028.36
2017-08-02T10:48:11.701Z,1028.35
2017-08-02T10:49:11.707Z,1028.34
2017-08-02T10:50:11.717Z,1028.32
2017-08-02T10:51:11.727Z,1028.34
2017-08-02T10:52:11.730Z,1028.44
2017-08-02T10:53:11.735Z,1028.47
2017-08-02T10:54:11.741Z,1028.59
2017-08-02T10:55:11.749Z,1028.63
2017-08-02T10:56:11.760Z,1028.69
2017-08-02T10:57:11.771Z,1028.74
2017-08-02T10:58:11.774Z,1028.78
2017-08-02T10:59:11.786Z,1028.8
2017-08-02T11:00:11.790Z,1028.76
2017-08-02T11:01:11.804Z,1028.67
2017-08-02T11:02:11.809Z,1028.68
2017-08-02T11:03:11.815Z,1028.75
2017-08-02T11:04:11.821Z,1028.74
2017-08-02T11:05:11.833Z,1028.7
2017-08-02T11:06:11.837Z,1028.62
2017-08-02T11:07:11.847Z,1028.54
2017-08-02T11:08:11.855Z,1028.49
2017-08-02T11:09:11.865Z,1028.54
2017-08-02T11:10:11.871Z,1028.59
2017-08-02T11:11:11.882Z,1028.6
2017-08-02T11:12:11.887Z,1028.64
2017-08-02T11:13:11.890Z,1028.71
2017-08-02T11:14:11.900Z,1028.77
2017-08-02T11:15:11.909Z,1028.8
2017-08-02T11:16:11.918Z,1028.84
2017-08-02T11:17:11.926Z,1028.78
2017-08-02T11:18:11.933Z,1028.69
2017-08-02T11:19:11.946Z,1028.64
2017-08-02T11:20:11.948Z,1028.59
2017-08-02T11:21:11.957Z,1028.56
2017-08-02T11:22:11.963Z,1028.52
2017-08-02T11:23:11.971Z,1028.54
2017-08-02T11:24:11.977Z,1028.61
2017-08-02T11:25:11.989Z,1028.64
2017-08-02T11:26:11.998Z,1028.65
2017-08-02T11:27:12.003Z,1028.58
2017-08-02T11:28:12.013Z,1028.54
2017-08-02T11:29:12.017Z,1028.59
2017-08-02T11:30:12.028Z,1028.69
2017-08-02T11:31:12.034Z,1028.8
2017-08-02T11:32:12.043Z,1028.84
2017-08-02T11:33:12.046Z,1028.92
2017-08-02T11:34:12.058Z,1028.98
2017-08-02T11:35:12.064Z,1029.1
2017-08-02T11:36:12.073Z,1029.2
2017-08-02T11:37:12.086Z,1029.27
2017-08-02T11:38:12.087Z,1029.25
2017-08-02T11:39:12.095Z,1029.25
2017-08-02T11:40:12.106Z,1029.21
2017-08-02T11:41:12.109Z,1029.26
2017-08-02T11:42:12.115Z,1029.25
2017-08-02T11:43:12.122Z,1029.29
2017-08-02T11:44:12.132Z,1029.29
2017-08-02T11:45:12.138Z,1029.3
2017-08-02T11:46:12.153Z,1029.33
2017-08-02T11:47:12.155Z,1029.36
2017-08-02T11:48:12.162Z,1029.44
2017-08-02T11:49:12.169Z,1029.51
2017-08-02T11:50:12.179Z,1029.49
2017-08-02T11:51:12.179Z,1029.45
2017-08-02T11:52:12.187Z,1029.4
2017-08-02T11:53:12.194Z,1029.43
2017-08-02T11:54:12.204Z,1029.47
2017-08-02T11:55:12.211Z,1029.49
2017-08-02T11:56:12.217Z,1029.55
2017-08-02T11:57:12.220Z,1029.67
2017-08-02T11:58:12.229Z,1029.78
2017-08-02T11:59:12.240Z,1029.79
2017-08-02T12:00:12.245Z,1029.8
2017-08-02T12:01:12.253Z,1029.78
2017-08-02T12:02:12.254Z,1029.77
2017-08-02T12:03:12.262Z,1029.76
2017-08-02T12:04:12.270Z,1029.8
2017-08-02T12:05:12.279Z,1029.77
2017-08-02T12:06:12.283Z,1029.77
2017-08-02T12:07:12.290Z,1029.68
2017-08-02T12:08:12.304Z,1029.71